sensor_id;sensor_type;location;lat;lon;timestamp;pressure;altitude;pressure_sealevel;temperature;humidity
64616;BME280;51027;42.162;24.754;2022-10-17T00:01:48;101156.59;;;8.76;78.69
64616;BME280;51027;42.162;24.754;2022-10-17T00:04:14;101160.09;;;8.78;78.50
64616;BME280;51027;42.162;24.754;2022-10-17T00:06:39;101167.91;;;8.86;77.91
64616;BME280;51027;42.162;24.754;2022-10-17T00:09:05;101170.59;;;8.77;78.38
64616;BME280;51027;42.162;24.754;2022-10-17T00:11:30;101167.22;;;8.64;78.96
64616;BME280;51027;42.162;24.754;2022-10-17T00:13:56;101179.44;;;8.66;79.10
64616;BME280;51027;42.162;24.754;2022-10-17T00:16:29;101172.50;;;8.61;78.88
64616;BME280;51027;42.162;24.754;2022-10-17T00:18:55;101166.44;;;8.53;79.28
64616;BME280;51027;42.162;24.754;2022-10-17T00:21:21;101149.91;;;8.40;79.32
64616;BME280;51027;42.162;24.754;2022-10-17T00:23:47;101174.28;;;8.59;79.11
64616;BME280;51027;42.162;24.754;2022-10-17T00:26:14;101175.13;;;8.58;78.85
64616;BME280;51027;42.162;24.754;2022-10-17T00:28:40;101177.75;;;8.58;78.84
64616;BME280;51027;42.162;24.754;2022-10-17T00:31:08;101180.38;;;8.56;78.67
64616;BME280;51027;42.162;24.754;2022-10-17T00:33:34;101175.28;;;8.35;79.02
64616;BME280;51027;42.162;24.754;2022-10-17T00:36:07;101181.38;;;8.34;79.23
64616;BME280;51027;42.162;24.754;2022-10-17T00:38:34;101174.41;;;8.34;78.99
64616;BME280;51027;42.162;24.754;2022-10-17T00:41:00;101146.50;;;8.17;78.82
64616;BME280;51027;42.162;24.754;2022-10-17T00:43:26;101181.47;;;8.22;79.39
64616;BME280;51027;42.162;24.754;2022-10-17T00:45:52;101181.47;;;8.22;79.41
64616;BME280;51027;42.162;24.754;2022-10-17T00:48:17;101182.31;;;8.24;79.53
64616;BME280;51027;42.162;24.754;2022-10-17T00:50:45;101184.06;;;8.29;79.46
64616;BME280;51027;42.162;24.754;2022-10-17T00:53:13;101176.22;;;8.22;79.70
64616;BME280;51027;42.162;24.754;2022-10-17T00:55:50;101177.97;;;8.23;79.62
64616;BME280;51027;42.162;24.754;2022-10-17T00:58:17;101176.19;;;8.23;79.67
64616;BME280;51027;42.162;24.754;2022-10-17T01:00:46;101176.19;;;8.26;79.56
64616;BME280;51027;42.162;24.754;2022-10-17T01:03:12;101138.75;;;7.98;79.62
64616;BME280;51027;42.162;24.754;2022-10-17T01:05:39;101172.69;;;8.26;79.70
64616;BME280;51027;42.162;24.754;2022-10-17T01:08:06;101184.94;;;8.24;79.70
64616;BME280;51027;42.162;24.754;2022-10-17T01:10:40;101160.53;;;8.13;79.95
64616;BME280;51027;42.162;24.754;2022-10-17T01:13:12;101180.59;;;8.20;80.34
64616;BME280;51027;42.162;24.754;2022-10-17T01:31:47;101187.75;;;7.92;80.61
64616;BME280;51027;42.162;24.754;2022-10-17T01:34:21;101192.09;;;7.99;80.47
64616;BME280;51027;42.162;24.754;2022-10-17T01:37:02;101186.84;;;7.94;80.73
64616;BME280;51027;42.162;24.754;2022-10-17T01:42:21;101192.94;;;8.01;81.19
64616;BME280;51027;42.162;24.754;2022-10-17T01:47:22;101184.19;;;8.02;81.08
64616;BME280;51027;42.162;24.754;2022-10-17T01:49:50;101191.22;;;8.00;80.76
64616;BME280;51027;42.162;24.754;2022-10-17T01:52:24;101180.75;;;7.92;81.11
64616;BME280;51027;42.162;24.754;2022-10-17T01:54:54;101185.09;;;7.93;80.99
64616;BME280;51027;42.162;24.754;2022-10-17T01:57:29;101197.38;;;7.84;81.39
64616;BME280;51027;42.162;24.754;2022-10-17T01:59:56;101196.53;;;7.80;81.85
64616;BME280;51027;42.162;24.754;2022-10-17T02:02:23;101201.78;;;7.78;81.79
64616;BME280;51027;42.162;24.754;2022-10-17T02:04:50;101201.75;;;7.82;81.40
64616;BME280;51027;42.162;24.754;2022-10-17T02:07:16;101206.19;;;7.76;81.61
64616;BME280;51027;42.162;24.754;2022-10-17T02:09:42;101204.41;;;7.74;81.81
64616;BME280;51027;42.162;24.754;2022-10-17T02:20:00;101220.19;;;7.69;81.69
64616;BME280;51027;42.162;24.754;2022-10-17T02:22:46;101214.91;;;7.72;81.54
64616;BME280;51027;42.162;24.754;2022-10-17T02:27:58;101206.22;;;7.57;82.30
64616;BME280;51027;42.162;24.754;2022-10-17T02:33:27;101221.94;;;7.61;81.89
64616;BME280;51027;42.162;24.754;2022-10-17T02:36:06;101218.44;;;7.67;82.06
64616;BME280;51027;42.162;24.754;2022-10-17T02:38:33;101182.66;;;7.49;81.77
64616;BME280;51027;42.162;24.754;2022-10-17T02:40:59;101212.31;;;7.62;81.92
64616;BME280;51027;42.162;24.754;2022-10-17T02:43:25;101221.94;;;7.54;82.22
64616;BME280;51027;42.162;24.754;2022-10-17T02:45:52;101182.69;;;7.23;82.38
64616;BME280;51027;42.162;24.754;2022-10-17T02:48:31;101243.78;;;7.66;82.10
64616;BME280;51027;42.162;24.754;2022-10-17T02:51:08;101244.66;;;7.68;82.21
64616;BME280;51027;42.162;24.754;2022-10-17T02:53:43;101250.75;;;7.64;82.27
64616;BME280;51027;42.162;24.754;2022-10-17T02:56:17;101253.41;;;7.61;82.30
64616;BME280;51027;42.162;24.754;2022-10-17T02:58:56;101256.03;;;7.57;82.35
64616;BME280;51027;42.162;24.754;2022-10-17T03:01:24;101242.97;;;7.46;82.47
64616;BME280;51027;42.162;24.754;2022-10-17T03:03:50;101243.81;;;7.45;82.83
64616;BME280;51027;42.162;24.754;2022-10-17T03:06:15;101252.53;;;7.45;83.07
64616;BME280;51027;42.162;24.754;2022-10-17T03:08:41;101254.28;;;7.57;82.31
64616;BME280;51027;42.162;24.754;2022-10-17T03:11:06;101261.25;;;7.63;82.22
64616;BME280;51027;42.162;24.754;2022-10-17T03:13:32;101255.16;;;7.59;81.95
64616;BME280;51027;42.162;24.754;2022-10-17T03:15:57;101258.63;;;7.55;82.16
64616;BME280;51027;42.162;24.754;2022-10-17T03:18:23;101254.31;;;7.46;82.22
64616;BME280;51027;42.162;24.754;2022-10-17T03:20:48;101257.81;;;7.30;82.44
64616;BME280;51027;42.162;24.754;2022-10-17T03:23:14;101268.28;;;7.30;83.02
64616;BME280;51027;42.162;24.754;2022-10-17T03:25:40;101278.78;;;7.41;82.64
64616;BME280;51027;42.162;24.754;2022-10-17T03:28:06;101270.06;;;7.36;82.58
64616;BME280;51027;42.162;24.754;2022-10-17T03:30:32;101261.28;;;7.35;82.65
64616;BME280;51027;42.162;24.754;2022-10-17T03:32:57;101256.06;;;7.32;83.02
64616;BME280;51027;42.162;24.754;2022-10-17T03:35:23;101262.19;;;7.27;82.93
64616;BME280;51027;42.162;24.754;2022-10-17T03:37:49;101255.19;;;7.15;83.81
64616;BME280;51027;42.162;24.754;2022-10-17T03:40:14;101259.56;;;7.07;83.85
64616;BME280;51027;42.162;24.754;2022-10-17T03:42:40;101263.06;;;7.19;83.51
64616;BME280;51027;42.162;24.754;2022-10-17T03:45:06;101264.81;;;7.17;83.43
64616;BME280;51027;42.162;24.754;2022-10-17T03:47:31;101255.19;;;7.13;83.37
64616;BME280;51027;42.162;24.754;2022-10-17T03:49:56;101256.06;;;7.00;83.83
64616;BME280;51027;42.162;24.754;2022-10-17T03:52:22;101267.38;;;6.70;85.21
64616;BME280;51027;42.162;24.754;2022-10-17T03:54:49;101268.28;;;6.92;84.84
64616;BME280;51027;42.162;24.754;2022-10-17T03:57:15;101264.78;;;7.04;84.32
64616;BME280;51027;42.162;24.754;2022-10-17T03:59:40;101270.00;;;6.78;85.53
64616;BME280;51027;42.162;24.754;2022-10-17T04:02:06;101265.66;;;6.89;85.10
64616;BME280;51027;42.162;24.754;2022-10-17T04:04:31;101267.41;;;7.11;84.04
64616;BME280;51027;42.162;24.754;2022-10-17T04:06:56;101263.91;;;7.23;83.86
64616;BME280;51027;42.162;24.754;2022-10-17T04:09:22;101269.19;;;7.26;83.30
64616;BME280;51027;42.162;24.754;2022-10-17T04:11:47;101265.69;;;7.19;83.52
64616;BME280;51027;42.162;24.754;2022-10-17T04:14:12;101265.66;;;7.24;83.55
64616;BME280;51027;42.162;24.754;2022-10-17T04:16:38;101242.97;;;7.06;83.64
64616;BME280;51027;42.162;24.754;2022-10-17T04:19:04;101259.56;;;7.13;83.74
64616;BME280;51027;42.162;24.754;2022-10-17T04:21:29;101265.69;;;7.06;84.15
64616;BME280;51027;42.162;24.754;2022-10-17T04:23:56;101265.63;;;6.71;86.03
64616;BME280;51027;42.162;24.754;2022-10-17T04:26:22;101269.16;;;6.97;84.85
64616;BME280;51027;42.162;24.754;2022-10-17T04:28:48;101277.03;;;7.09;84.19
64616;BME280;51027;42.162;24.754;2022-10-17T04:31:14;101285.78;;;7.07;84.27
64616;BME280;51027;42.162;24.754;2022-10-17T04:33:41;101295.34;;;6.94;84.32
64616;BME280;51027;42.162;24.754;2022-10-17T04:36:10;101273.50;;;6.64;85.91
64616;BME280;51027;42.162;24.754;2022-10-17T04:38:36;101290.97;;;6.79;85.40
64616;BME280;51027;42.162;24.754;2022-10-17T04:41:07;101287.41;;;6.51;86.88
64616;BME280;51027;42.162;24.754;2022-10-17T04:43:36;101291.75;;;6.52;86.79
64616;BME280;51027;42.162;24.754;2022-10-17T04:46:05;101287.44;;;6.68;86.19
64616;BME280;51027;42.162;24.754;2022-10-17T04:48:31;101285.69;;;6.69;85.51
64616;BME280;51027;42.162;24.754;2022-10-17T04:50:59;101306.69;;;6.88;85.17
64616;BME280;51027;42.162;24.754;2022-10-17T04:53:35;101314.47;;;6.64;85.90
64616;BME280;51027;42.162;24.754;2022-10-17T04:56:16;101311.06;;;6.88;85.52
64616;BME280;51027;42.162;24.754;2022-10-17T04:58:43;101317.16;;;6.93;84.96
64616;BME280;51027;42.162;24.754;2022-10-17T05:01:14;101309.28;;;6.82;84.80
64616;BME280;51027;42.162;24.754;2022-10-17T05:03:41;101320.63;;;6.77;85.34
64616;BME280;51027;42.162;24.754;2022-10-17T05:06:12;101331.16;;;6.97;84.64
64616;BME280;51027;42.162;24.754;2022-10-17T05:08:44;101307.56;;;6.89;84.03
64616;BME280;51027;42.162;24.754;2022-10-17T05:11:23;101337.25;;;6.94;84.13
64616;BME280;51027;42.162;24.754;2022-10-17T05:13:53;101339.88;;;7.05;83.78
64616;BME280;51027;42.162;24.754;2022-10-17T05:16:20;101337.31;;;7.15;83.16
64616;BME280;51027;42.162;24.754;2022-10-17T05:18:50;101343.41;;;7.17;83.13
64616;BME280;51027;42.162;24.754;2022-10-17T05:21:16;101348.66;;;7.33;82.37
64616;BME280;51027;42.162;24.754;2022-10-17T05:23:41;101349.56;;;7.36;82.16
64616;BME280;51027;42.162;24.754;2022-10-17T05:26:07;101362.63;;;7.45;81.49
64616;BME280;51027;42.162;24.754;2022-10-17T05:28:33;101356.53;;;7.48;81.06
64616;BME280;51027;42.162;24.754;2022-10-17T05:31:06;101367.91;;;7.51;81.35
64616;BME280;51027;42.162;24.754;2022-10-17T05:33:33;101369.66;;;7.57;80.99
64616;BME280;51027;42.162;24.754;2022-10-17T05:35:59;101370.53;;;7.70;80.22
64616;BME280;51027;42.162;24.754;2022-10-17T05:38:25;101378.38;;;7.71;80.39
64616;BME280;51027;42.162;24.754;2022-10-17T05:40:51;101378.38;;;7.74;80.15
64616;BME280;51027;42.162;24.754;2022-10-17T05:43:16;101376.63;;;7.73;80.11
64616;BME280;51027;42.162;24.754;2022-10-17T05:45:42;101374.88;;;7.83;79.70
64616;BME280;51027;42.162;24.754;2022-10-17T05:48:07;101375.75;;;7.90;79.50
64616;BME280;51027;42.162;24.754;2022-10-17T05:50:34;101388.84;;;8.08;79.25
64616;BME280;51027;42.162;24.754;2022-10-17T05:53:00;101367.72;;;8.57;76.72
64616;BME280;51027;42.162;24.754;2022-10-17T05:55:26;101380.91;;;8.49;76.89
64616;BME280;51027;42.162;24.754;2022-10-17T05:57:51;101386.13;;;8.52;76.78
64616;BME280;51027;42.162;24.754;2022-10-17T06:00:18;101394.91;;;8.50;77.15
64616;BME280;51027;42.162;24.754;2022-10-17T06:02:44;101362.47;;;8.54;76.46
64616;BME280;51027;42.162;24.754;2022-10-17T06:05:13;101398.22;;;8.85;75.79
64616;BME280;51027;42.162;24.754;2022-10-17T06:07:39;101399.19;;;8.71;76.14
64616;BME280;51027;42.162;24.754;2022-10-17T06:10:06;101387.66;;;9.02;74.80
64616;BME280;51027;42.162;24.754;2022-10-17T06:12:32;101389.22;;;9.31;73.32
64616;BME280;51027;42.162;24.754;2022-10-17T06:14:57;101411.13;;;9.30;73.56
64616;BME280;51027;42.162;24.754;2022-10-17T06:17:23;101409.44;;;9.21;74.08
64616;BME280;51027;42.162;24.754;2022-10-17T06:19:48;101418.94;;;9.42;73.26
64616;BME280;51027;42.162;24.754;2022-10-17T06:22:14;101418.84;;;10.52;69.41
64616;BME280;51027;42.162;24.754;2022-10-17T06:24:40;101417.91;;;10.58;68.33
64616;BME280;51027;42.162;24.754;2022-10-17T06:27:07;101421.22;;;9.88;70.85
64616;BME280;51027;42.162;24.754;2022-10-17T06:29:32;101423.25;;;10.50;68.80
64616;BME280;51027;42.162;24.754;2022-10-17T06:31:57;101422.50;;;11.11;67.04
64616;BME280;51027;42.162;24.754;2022-10-17T06:34:23;101430.69;;;11.53;64.16
64616;BME280;51027;42.162;24.754;2022-10-17T06:36:48;101410.72;;;12.85;61.02
64616;BME280;51027;42.162;24.754;2022-10-17T06:39:14;101425.16;;;15.44;52.64
64616;BME280;51027;42.162;24.754;2022-10-17T06:41:40;101426.22;;;12.60;59.71
64616;BME280;51027;42.162;24.754;2022-10-17T06:44:06;101433.81;;;11.21;65.08
64616;BME280;51027;42.162;24.754;2022-10-17T06:46:40;101430.47;;;10.34;67.92
64616;BME280;51027;42.162;24.754;2022-10-17T06:49:06;101430.16;;;10.62;68.04
64616;BME280;51027;42.162;24.754;2022-10-17T06:51:36;101425.53;;;13.35;58.92
64616;BME280;51027;42.162;24.754;2022-10-17T06:54:02;101425.97;;;13.14;58.70
64616;BME280;51027;42.162;24.754;2022-10-17T06:56:28;101428.97;;;11.50;64.37
64616;BME280;51027;42.162;24.754;2022-10-17T06:58:53;101423.22;;;11.24;65.68
64616;BME280;51027;42.162;24.754;2022-10-17T07:01:19;101438.59;;;11.53;64.91
64616;BME280;51027;42.162;24.754;2022-10-17T07:03:47;101424.28;;;13.87;57.51
64616;BME280;51027;42.162;24.754;2022-10-17T07:06:13;101413.31;;;11.97;61.72
64616;BME280;51027;42.162;24.754;2022-10-17T07:08:42;101433.88;;;11.16;64.33
64616;BME280;51027;42.162;24.754;2022-10-17T07:11:14;101439.03;;;11.25;65.48
64616;BME280;51027;42.162;24.754;2022-10-17T07:13:40;101438.66;;;11.50;65.42
64616;BME280;51027;42.162;24.754;2022-10-17T07:16:07;101440.16;;;12.68;62.46
64616;BME280;51027;42.162;24.754;2022-10-17T07:18:33;101444.66;;;13.46;59.77
64616;BME280;51027;42.162;24.754;2022-10-17T07:20:59;101440.16;;;14.23;57.27
64616;BME280;51027;42.162;24.754;2022-10-17T07:23:25;101445.22;;;14.32;55.89
64616;BME280;51027;42.162;24.754;2022-10-17T07:26:07;101449.06;;;14.19;56.70
64616;BME280;51027;42.162;24.754;2022-10-17T07:28:35;101450.53;;;13.61;59.69
64616;BME280;51027;42.162;24.754;2022-10-17T07:31:09;101442.56;;;18.98;45.24
64616;BME280;51027;42.162;24.754;2022-10-17T07:33:37;101441.44;;;19.41;43.30
64616;BME280;51027;42.162;24.754;2022-10-17T07:36:04;101416.13;;;17.92;45.79
64616;BME280;51027;42.162;24.754;2022-10-17T07:38:30;101450.75;;;18.13;46.51
64616;BME280;51027;42.162;24.754;2022-10-17T07:41:01;101452.56;;;17.24;48.29
64616;BME280;51027;42.162;24.754;2022-10-17T07:43:27;101456.56;;;17.12;48.61
64616;BME280;51027;42.162;24.754;2022-10-17T07:45:54;101447.50;;;18.68;45.15
64616;BME280;51027;42.162;24.754;2022-10-17T07:48:21;101445.59;;;21.83;38.83
64616;BME280;51027;42.162;24.754;2022-10-17T07:50:47;101435.69;;;19.68;40.77
64616;BME280;51027;42.162;24.754;2022-10-17T07:53:13;101441.09;;;18.72;44.33
64616;BME280;51027;42.162;24.754;2022-10-17T07:55:39;101454.16;;;16.31;49.37
64616;BME280;51027;42.162;24.754;2022-10-17T07:58:05;101441.97;;;15.15;53.67
64616;BME280;51027;42.162;24.754;2022-10-17T08:00:31;101451.69;;;16.00;50.61
64616;BME280;51027;42.162;24.754;2022-10-17T08:02:56;101438.84;;;15.60;51.86
64616;BME280;51027;42.162;24.754;2022-10-17T08:05:22;101437.84;;;16.17;51.15
64616;BME280;51027;42.162;24.754;2022-10-17T08:07:47;101440.91;;;16.55;50.38
64616;BME280;51027;42.162;24.754;2022-10-17T08:10:14;101421.19;;;18.18;45.63
64616;BME280;51027;42.162;24.754;2022-10-17T08:12:40;101432.56;;;19.22;43.45
64616;BME280;51027;42.162;24.754;2022-10-17T08:15:06;101431.94;;;16.59;49.20
64616;BME280;51027;42.162;24.754;2022-10-17T08:17:34;101432.19;;;16.51;49.63
64616;BME280;51027;42.162;24.754;2022-10-17T08:19:59;101432.84;;;16.83;48.89
64616;BME280;51027;42.162;24.754;2022-10-17T08:22:25;101434.06;;;18.69;44.99
64616;BME280;51027;42.162;24.754;2022-10-17T08:24:50;101434.72;;;20.22;41.61
64616;BME280;51027;42.162;24.754;2022-10-17T08:27:16;101424.44;;;22.53;36.72
64616;BME280;51027;42.162;24.754;2022-10-17T08:29:47;101417.59;;;19.55;41.26
64616;BME280;51027;42.162;24.754;2022-10-17T08:32:17;101429.69;;;21.64;38.12
64616;BME280;51027;42.162;24.754;2022-10-17T08:34:43;101427.81;;;24.86;33.25
64616;BME280;51027;42.162;24.754;2022-10-17T08:37:08;101427.94;;;18.67;42.05
64616;BME280;51027;42.162;24.754;2022-10-17T08:39:34;101442.38;;;16.13;48.83
64616;BME280;51027;42.162;24.754;2022-10-17T08:42:44;101439.84;;;16.85;48.96
64616;BME280;51027;42.162;24.754;2022-10-17T08:45:29;101434.94;;;18.90;43.52
64616;BME280;51027;42.162;24.754;2022-10-17T08:47:59;101427.66;;;17.25;47.22
64616;BME280;51027;42.162;24.754;2022-10-17T08:52:56;101427.69;;;19.30;43.50
64616;BME280;51027;42.162;24.754;2022-10-17T08:55:43;101434.41;;;18.21;44.89
64616;BME280;51027;42.162;24.754;2022-10-17T09:06:24;101419.88;;;20.34;40.14
64616;BME280;51027;42.162;24.754;2022-10-17T09:09:19;101410.44;;;23.60;35.05
64616;BME280;51027;42.162;24.754;2022-10-17T09:12:04;101426.81;;;27.23;29.37
64616;BME280;51027;42.162;24.754;2022-10-17T09:14:55;101411.75;;;24.47;31.91
64616;BME280;51027;42.162;24.754;2022-10-17T09:20:25;101408.94;;;20.56;38.72
64616;BME280;51027;42.162;24.754;2022-10-17T09:23:15;101404.38;;;22.30;35.38
64616;BME280;51027;42.162;24.754;2022-10-17T09:25:43;101398.06;;;22.31;34.77
64616;BME280;51027;42.162;24.754;2022-10-17T09:28:14;101401.19;;;21.47;36.73
64616;BME280;51027;42.162;24.754;2022-10-17T09:30:48;101400.06;;;21.97;36.39
64616;BME280;51027;42.162;24.754;2022-10-17T09:33:20;101400.97;;;22.85;33.74
64616;BME280;51027;42.162;24.754;2022-10-17T09:35:47;101379.25;;;20.08;37.82
64616;BME280;51027;42.162;24.754;2022-10-17T09:38:20;101393.81;;;20.20;38.14
64616;BME280;51027;42.162;24.754;2022-10-17T09:40:54;101397.56;;;22.24;35.82
64616;BME280;51027;42.162;24.754;2022-10-17T09:43:21;101381.63;;;20.14;38.17
64616;BME280;51027;42.162;24.754;2022-10-17T09:46:09;101392.41;;;19.96;38.49
64616;BME280;51027;42.162;24.754;2022-10-17T09:48:48;101386.25;;;19.76;37.64
64616;BME280;51027;42.162;24.754;2022-10-17T09:51:15;101393.28;;;19.96;36.99
64616;BME280;51027;42.162;24.754;2022-10-17T09:53:49;101390.69;;;19.95;38.24
64616;BME280;51027;42.162;24.754;2022-10-17T09:56:17;101370.50;;;19.70;37.83
64616;BME280;51027;42.162;24.754;2022-10-17T09:58:51;101387.22;;;19.93;37.24
64616;BME280;51027;42.162;24.754;2022-10-17T10:03:47;101377.22;;;19.96;37.80
64616;BME280;51027;42.162;24.754;2022-10-17T10:06:18;101362.97;;;19.61;37.19
64616;BME280;51027;42.162;24.754;2022-10-17T10:11:19;101368.09;;;19.47;36.39
64616;BME280;51027;42.162;24.754;2022-10-17T10:13:47;101364.66;;;19.45;36.48
64616;BME280;51027;42.162;24.754;2022-10-17T10:18:41;101368.72;;;19.16;35.77
64616;BME280;51027;42.162;24.754;2022-10-17T10:23:32;101356.13;;;18.82;36.77
64616;BME280;51027;42.162;24.754;2022-10-17T10:26:02;101348.97;;;19.56;36.54
64616;BME280;51027;42.162;24.754;2022-10-17T10:28:30;101347.59;;;19.83;35.71
64616;BME280;51027;42.162;24.754;2022-10-17T10:30:59;101341.88;;;19.55;34.93
64616;BME280;51027;42.162;24.754;2022-10-17T10:33:28;101342.53;;;19.95;35.85
64616;BME280;51027;42.162;24.754;2022-10-17T10:36:02;101329.09;;;19.96;34.51
64616;BME280;51027;42.162;24.754;2022-10-17T10:38:30;101335.59;;;20.08;32.35
64616;BME280;51027;42.162;24.754;2022-10-17T10:41:08;101334.59;;;19.93;32.61
64616;BME280;51027;42.162;24.754;2022-10-17T10:43:50;101327.13;;;19.65;33.45
64616;BME280;51027;42.162;24.754;2022-10-17T10:46:22;101327.56;;;20.08;33.82
64616;BME280;51027;42.162;24.754;2022-10-17T10:51:17;101322.56;;;19.84;34.00
64616;BME280;51027;42.162;24.754;2022-10-17T10:54:15;101327.50;;;19.92;33.46
64616;BME280;51027;42.162;24.754;2022-10-17T10:56:45;101321.63;;;19.68;33.44
64616;BME280;51027;42.162;24.754;2022-10-17T11:07:50;101311.41;;;19.94;35.06
64616;BME280;51027;42.162;24.754;2022-10-17T11:13:21;101308.72;;;19.94;34.80
64616;BME280;51027;42.162;24.754;2022-10-17T11:15:51;101305.56;;;20.03;35.02
64616;BME280;51027;42.162;24.754;2022-10-17T11:18:21;101304.81;;;19.83;34.79
64616;BME280;51027;42.162;24.754;2022-10-17T11:20:59;101298.72;;;19.97;34.34
64616;BME280;51027;42.162;24.754;2022-10-17T11:23:45;101300.44;;;19.46;34.37
64616;BME280;51027;42.162;24.754;2022-10-17T11:26:32;101295.06;;;19.29;35.30
64616;BME280;51027;42.162;24.754;2022-10-17T11:29:02;101285.06;;;19.69;35.23
64616;BME280;51027;42.162;24.754;2022-10-17T11:31:36;101286.09;;;19.66;35.69
64616;BME280;51027;42.162;24.754;2022-10-17T11:34:07;101286.09;;;19.83;35.24
64616;BME280;51027;42.162;24.754;2022-10-17T11:36:38;101286.03;;;20.01;35.18
64616;BME280;51027;42.162;24.754;2022-10-17T11:39:11;101282.94;;;19.75;37.03
64616;BME280;51027;42.162;24.754;2022-10-17T11:41:45;101280.09;;;19.78;35.51
64616;BME280;51027;42.162;24.754;2022-10-17T11:46:40;101267.97;;;19.71;35.47
64616;BME280;51027;42.162;24.754;2022-10-17T11:49:17;101270.56;;;19.90;35.61
64616;BME280;51027;42.162;24.754;2022-10-17T11:51:53;101262.09;;;20.15;36.55
64616;BME280;51027;42.162;24.754;2022-10-17T11:54:28;101259.00;;;20.23;35.22
64616;BME280;51027;42.162;24.754;2022-10-17T12:00:24;101257.88;;;20.44;34.92
64616;BME280;51027;42.162;24.754;2022-10-17T12:03:06;101257.38;;;20.69;33.76
64616;BME280;51027;42.162;24.754;2022-10-17T12:05:47;101255.25;;;20.42;34.19
64616;BME280;51027;42.162;24.754;2022-10-17T12:08:33;101251.31;;;20.50;35.21
64616;BME280;51027;42.162;24.754;2022-10-17T12:13:54;101255.75;;;20.33;34.45
64616;BME280;51027;42.162;24.754;2022-10-17T12:18:47;101254.34;;;20.44;35.26
64616;BME280;51027;42.162;24.754;2022-10-17T12:21:13;101250.53;;;20.48;35.72
64616;BME280;51027;42.162;24.754;2022-10-17T12:23:39;101245.75;;;20.37;35.10
64616;BME280;51027;42.162;24.754;2022-10-17T12:26:07;101249.19;;;20.39;35.24
64616;BME280;51027;42.162;24.754;2022-10-17T12:33:48;101240.19;;;20.57;34.77
64616;BME280;51027;42.162;24.754;2022-10-17T12:38:44;101248.13;;;20.59;37.14
64616;BME280;51027;42.162;24.754;2022-10-17T12:41:10;101227.47;;;20.61;34.91
64616;BME280;51027;42.162;24.754;2022-10-17T12:46:10;101235.69;;;20.58;34.34
64616;BME280;51027;42.162;24.754;2022-10-17T12:48:59;101234.38;;;20.81;34.00
64616;BME280;51027;42.162;24.754;2022-10-17T12:51:25;101221.94;;;20.80;34.28
64616;BME280;51027;42.162;24.754;2022-10-17T12:54:01;101237.53;;;21.03;35.51
64616;BME280;51027;42.162;24.754;2022-10-17T12:56:38;101242.00;;;21.34;33.32
64616;BME280;51027;42.162;24.754;2022-10-17T12:59:08;101231.97;;;21.22;33.93
64616;BME280;51027;42.162;24.754;2022-10-17T13:01:38;101236.09;;;21.43;33.60
64616;BME280;51027;42.162;24.754;2022-10-17T13:04:04;101205.28;;;21.20;33.62
64616;BME280;51027;42.162;24.754;2022-10-17T13:06:37;101244.84;;;21.61;34.23
64616;BME280;51027;42.162;24.754;2022-10-17T13:09:07;101235.13;;;21.89;32.79
64616;BME280;51027;42.162;24.754;2022-10-17T13:11:34;101246.84;;;22.16;32.29
64616;BME280;51027;42.162;24.754;2022-10-17T13:14:02;101235.63;;;24.73;29.35
64616;BME280;51027;42.162;24.754;2022-10-17T13:16:36;101239.66;;;23.40;30.06
64616;BME280;51027;42.162;24.754;2022-10-17T13:19:15;101245.13;;;23.91;29.49
64616;BME280;51027;42.162;24.754;2022-10-17T13:21:59;101245.19;;;22.56;32.26
64616;BME280;51027;42.162;24.754;2022-10-17T13:24:35;101248.16;;;21.95;32.91
64616;BME280;51027;42.162;24.754;2022-10-17T13:27:01;101235.72;;;21.19;33.47
64616;BME280;51027;42.162;24.754;2022-10-17T13:29:28;101231.56;;;21.14;33.49
64616;BME280;51027;42.162;24.754;2022-10-17T13:31:58;101242.91;;;21.03;33.68
64616;BME280;51027;42.162;24.754;2022-10-17T13:34:28;101224.47;;;21.13;33.69
64616;BME280;51027;42.162;24.754;2022-10-17T13:36:59;101237.88;;;21.28;33.78
64616;BME280;51027;42.162;24.754;2022-10-17T13:39:33;101238.22;;;21.52;33.11
64616;BME280;51027;42.162;24.754;2022-10-17T13:42:00;101248.03;;;22.67;32.42
64616;BME280;51027;42.162;24.754;2022-10-17T13:44:31;101247.78;;;27.71;24.94
64616;BME280;51027;42.162;24.754;2022-10-17T13:46:57;101245.28;;;28.31;24.34
64616;BME280;51027;42.162;24.754;2022-10-17T13:49:31;101238.41;;;23.97;29.01
64616;BME280;51027;42.162;24.754;2022-10-17T13:51:57;101243.78;;;22.36;31.46
64616;BME280;51027;42.162;24.754;2022-10-17T13:54:30;101238.41;;;21.49;32.45
64616;BME280;51027;42.162;24.754;2022-10-17T13:56:57;101221.22;;;21.68;33.36
64616;BME280;51027;42.162;24.754;2022-10-17T13:59:25;101227.19;;;22.44;32.04
64616;BME280;51027;42.162;24.754;2022-10-17T14:01:53;101226.78;;;23.96;29.55
64616;BME280;51027;42.162;24.754;2022-10-17T14:04:20;101225.72;;;23.86;29.65
64616;BME280;51027;42.162;24.754;2022-10-17T14:06:46;101216.53;;;24.76;28.20
64616;BME280;51027;42.162;24.754;2022-10-17T14:09:30;101228.69;;;26.88;25.87
64616;BME280;51027;42.162;24.754;2022-10-17T14:12:07;101230.72;;;25.50;27.72
64616;BME280;51027;42.162;24.754;2022-10-17T14:14:37;101230.69;;;25.39;28.12
64616;BME280;51027;42.162;24.754;2022-10-17T14:17:12;101229.25;;;24.98;27.66
64616;BME280;51027;42.162;24.754;2022-10-17T14:19:37;101204.41;;;23.70;30.19
64616;BME280;51027;42.162;24.754;2022-10-17T14:22:17;101206.38;;;22.05;31.83
64616;BME280;51027;42.162;24.754;2022-10-17T14:24:49;101227.84;;;22.05;32.06
64616;BME280;51027;42.162;24.754;2022-10-17T14:27:33;101231.91;;;21.53;33.04
64616;BME280;51027;42.162;24.754;2022-10-17T14:30:02;101228.72;;;21.17;34.49
64616;BME280;51027;42.162;24.754;2022-10-17T14:32:29;101228.44;;;20.76;35.64